Time;durP1;ratioP1;P1;durP2;ratioP2;P2;SDS_P1;SDS_P2;PMS_P1;PMS_P2;Temp;Humidity;BMP_temperature;BMP_pressure;BME280_temperature;BME280_humidity;BME280_pressure;Samples;Min_cycle;Max_cycle;Signal;HPM_P1;HPM_P2
2023/03/10 00:02:04;;;;;;;13.38;8.75;;;12.00;99.90;;;;;;5050730;28;20077;-89
2023/03/10 00:04:30;;;;;;;12.63;8.02;;;12.00;99.90;;;;;;5051936;28;20029;-88
2023/03/10 00:06:55;;;;;;;11.43;7.85;;;12.00;99.90;;;;;;5051470;28;20025;-88
2023/03/10 00:09:21;;;;;;;10.45;7.25;;;12.00;99.90;;;;;;5051635;28;20512;-89
2023/03/10 00:11:47;;;;;;;10.20;7.22;;;11.90;99.90;;;;;;5051612;27;20021;-88
2023/03/10 00:14:14;;;;;;;11.45;6.55;;;11.90;99.90;;;;;;5051874;28;20107;-88
2023/03/10 00:16:40;;;;;;;12.40;6.28;;;11.90;99.90;;;;;;5051779;28;20045;-89
2023/03/10 00:19:06;;;;;;;9.63;5.82;;;11.90;99.90;;;;;;5051852;28;20025;-89
2023/03/10 00:21:33;;;;;;;8.57;6.00;;;11.90;99.90;;;;;;5050863;28;20021;-89
2023/03/10 00:23:59;;;;;;;8.38;5.28;;;11.80;99.90;;;;;;5051931;28;20056;-89
2023/03/10 00:26:26;;;;;;;10.15;5.75;;;11.90;99.90;;;;;;5051544;28;20107;-89
2023/03/10 00:28:53;;;;;;;7.45;4.88;;;11.90;99.90;;;;;;5051680;28;20130;-88
2023/03/10 00:31:24;;;;;;;9.90;4.80;;;11.90;99.90;;;;;;5051639;28;20070;-89
2023/03/10 00:33:51;;;;;;;8.63;4.80;;;11.80;99.90;;;;;;5051423;28;20037;-89
2023/03/10 00:36:22;;;;;;;7.18;3.85;;;11.80;99.90;;;;;;5051066;28;20055;-88
2023/03/10 00:38:48;;;;;;;5.85;3.70;;;11.90;99.90;;;;;;5051821;28;20402;-89
2023/03/10 00:41:25;;;;;;;7.82;4.68;;;11.80;99.90;;;;;;5051477;28;20028;-89
2023/03/10 00:43:51;;;;;;;9.00;4.25;;;11.90;99.90;;;;;;5051550;28;20060;-88
2023/03/10 00:46:17;;;;;;;8.40;3.88;;;11.90;99.90;;;;;;5051252;28;20049;-88
2023/03/10 00:48:43;;;;;;;7.68;3.67;;;12.00;99.90;;;;;;5051436;28;20078;-89
2023/03/10 00:51:10;;;;;;;7.38;3.30;;;12.00;99.90;;;;;;5051006;28;20033;-89
2023/03/10 00:53:37;;;;;;;5.60;3.30;;;12.10;99.90;;;;;;5051200;28;20389;-89
2023/03/10 00:56:07;;;;;;;5.95;3.35;;;12.20;99.90;;;;;;5051079;28;20337;-89
2023/03/10 00:58:33;;;;;;;5.95;3.50;;;12.10;99.90;;;;;;5051089;28;20049;-88
2023/03/10 01:01:00;;;;;;;8.85;3.50;;;12.10;99.90;;;;;;5050763;28;20029;-89
2023/03/10 01:03:27;;;;;;;5.68;3.45;;;12.10;99.90;;;;;;5051382;28;20025;-89
2023/03/10 01:05:53;;;;;;;6.47;4.15;;;12.10;99.90;;;;;;5050736;28;20062;-88
2023/03/10 01:08:19;;;;;;;7.28;3.80;;;12.10;99.90;;;;;;5050915;28;20558;-88
2023/03/10 01:10:45;;;;;;;6.15;3.35;;;12.10;99.90;;;;;;5050942;28;20013;-89
2023/03/10 01:13:12;;;;;;;7.20;3.58;;;12.20;99.90;;;;;;5051147;27;20033;-89
2023/03/10 01:15:39;;;;;;;5.75;3.38;;;12.20;99.90;;;;;;5050696;28;20050;-88
2023/03/10 01:18:05;;;;;;;5.75;3.40;;;12.20;99.90;;;;;;5050147;28;20085;-89
2023/03/10 01:20:31;;;;;;;6.25;3.20;;;12.20;99.90;;;;;;5050935;28;20121;-88
2023/03/10 01:22:58;;;;;;;7.60;3.60;;;12.20;99.90;;;;;;5050722;28;20028;-89
2023/03/10 01:25:23;;;;;;;7.78;3.15;;;12.20;99.90;;;;;;5050569;28;20037;-89
2023/03/10 01:27:49;;;;;;;8.38;3.13;;;12.20;99.90;;;;;;5051191;28;20021;-89
2023/03/10 01:30:15;;;;;;;7.65;2.83;;;12.20;99.90;;;;;;5050506;28;20459;-89
2023/03/10 01:32:41;;;;;;;7.00;3.15;;;12.20;99.90;;;;;;5050123;28;20036;-88
2023/03/10 01:35:07;;;;;;;5.60;2.90;;;12.20;99.90;;;;;;5050527;28;20068;-89
2023/03/10 01:37:33;;;;;;;4.60;2.67;;;12.10;99.90;;;;;;5049162;28;20029;-89
2023/03/10 01:40:00;;;;;;;4.38;2.55;;;12.20;99.90;;;;;;5050923;28;20116;-89
2023/03/10 01:42:26;;;;;;;6.20;2.70;;;12.10;99.90;;;;;;5050389;28;20025;-89
2023/03/10 01:45:06;;;;;;;7.00;2.80;;;12.10;99.90;;;;;;5050509;28;20025;-89
2023/03/10 01:47:31;;;;;;;5.93;2.70;;;12.10;99.90;;;;;;5049915;28;20028;-88
2023/03/10 01:49:57;;;;;;;5.07;2.50;;;12.00;99.90;;;;;;5050359;28;20070;-89
2023/03/10 01:52:25;;;;;;;6.00;2.70;;;12.00;99.90;;;;;;5050704;28;20036;-89
2023/03/10 01:55:01;;;;;;;4.03;2.50;;;12.00;99.90;;;;;;5050368;28;20025;-88
2023/03/10 01:57:32;;;;;;;4.47;2.38;;;12.10;99.90;;;;;;5050135;28;20398;-89
2023/03/10 01:59:58;;;;;;;5.28;2.85;;;12.10;99.90;;;;;;5050209;28;20025;-89
2023/03/10 02:02:25;;;;;;;5.07;2.65;;;12.20;99.90;;;;;;5049799;28;20035;-89
2023/03/10 02:04:52;;;;;;;3.85;2.30;;;12.20;99.90;;;;;;5050570;28;20478;-89
2023/03/10 02:07:23;;;;;;;4.55;2.60;;;12.20;99.90;;;;;;5050187;28;20021;-89
2023/03/10 02:09:51;;;;;;;6.95;2.08;;;12.20;99.90;;;;;;5050096;28;20032;-89
2023/03/10 02:12:17;;;;;;;4.47;2.10;;;12.10;99.90;;;;;;5049352;27;20029;-89
2023/03/10 02:14:45;;;;;;;3.75;1.92;;;12.20;99.90;;;;;;5049747;28;20025;-89
2023/03/10 02:17:15;;;;;;;5.97;1.85;;;12.20;99.90;;;;;;5049873;28;20132;-88
2023/03/10 02:19:53;;;;;;;4.32;1.90;;;12.20;99.90;;;;;;5049974;28;20498;-89
2023/03/10 02:22:19;;;;;;;3.88;1.95;;;12.10;99.90;;;;;;5049772;28;20028;-88
2023/03/10 02:25:26;;;;;;;2.85;1.90;;;12.10;99.90;;;;;;5049756;28;20025;-89
2023/03/10 02:27:52;;;;;;;2.95;1.50;;;12.10;99.90;;;;;;5049735;28;20209;-89
2023/03/10 02:30:26;;;;;;;2.70;1.60;;;12.20;99.90;;;;;;5050106;28;20109;-89
2023/03/10 02:32:57;;;;;;;3.47;1.80;;;12.20;99.90;;;;;;5049417;28;20057;-89
2023/03/10 02:35:22;;;;;;;2.38;1.60;;;12.10;99.90;;;;;;5049665;28;20028;-90
2023/03/10 02:37:49;;;;;;;2.90;1.30;;;12.20;99.90;;;;;;5049716;28;20033;-89
2023/03/10 02:40:31;;;;;;;2.35;1.20;;;12.20;99.90;;;;;;5049616;28;20022;-90
2023/03/10 02:42:58;;;;;;;1.50;1.10;;;12.20;99.90;;;;;;5049555;28;20032;-90
2023/03/10 02:45:30;;;;;;;1.65;1.15;;;12.30;99.90;;;;;;5049451;28;20056;-89
2023/03/10 02:47:56;;;;;;;3.22;1.48;;;12.40;99.90;;;;;;5049494;28;20033;-89
2023/03/10 02:50:22;;;;;;;2.88;1.48;;;12.40;99.90;;;;;;5049527;28;20044;-89
2023/03/10 02:52:55;;;;;;;2.05;1.10;;;12.40;99.90;;;;;;5049356;28;20021;-89
2023/03/10 02:55:20;;;;;;;3.10;1.20;;;12.40;99.90;;;;;;5049765;28;20402;-89
2023/03/10 02:57:47;;;;;;;3.80;1.27;;;12.40;99.90;;;;;;5049077;28;20029;-89
2023/03/10 03:00:14;;;;;;;3.30;1.40;;;12.50;99.90;;;;;;5048872;28;20522;-89
2023/03/10 03:02:39;;;;;;;2.83;1.13;;;12.40;99.90;;;;;;5049164;28;20032;-89
2023/03/10 03:05:05;;;;;;;3.38;1.20;;;12.50;99.90;;;;;;5049803;28;20021;-89
2023/03/10 03:07:31;;;;;;;2.10;1.20;;;12.50;99.90;;;;;;5049110;28;20029;-89
2023/03/10 03:09:57;;;;;;;1.55;1.20;;;12.50;99.90;;;;;;5049106;28;20025;-88
2023/03/10 03:12:22;;;;;;;1.70;1.02;;;12.50;99.90;;;;;;5038612;28;20432;-89
2023/03/10 03:14:48;;;;;;;1.70;1.10;;;12.50;99.90;;;;;;5028833;28;20034;-88
2023/03/10 03:17:13;;;;;;;2.67;1.02;;;12.60;99.90;;;;;;5029028;28;20115;-89
2023/03/10 03:19:39;;;;;;;2.97;1.10;;;12.90;99.90;;;;;;5029512;28;20037;-88
2023/03/10 03:22:05;;;;;;;2.38;1.10;;;12.60;99.90;;;;;;5029106;28;20111;-89
2023/03/10 03:24:31;;;;;;;2.72;1.25;;;12.70;99.90;;;;;;5032780;28;20068;-89
2023/03/10 03:26:57;;;;;;;1.77;0.90;;;12.80;99.90;;;;;;5032886;28;20034;-89
2023/03/10 03:29:23;;;;;;;1.73;1.00;;;12.80;99.90;;;;;;5032022;28;20137;-89
2023/03/10 03:31:48;;;;;;;0.93;0.73;;;12.80;99.90;;;;;;5032698;28;20033;-88
2023/03/10 03:34:14;;;;;;;2.53;0.98;;;12.80;99.90;;;;;;5032383;28;20487;-89
2023/03/10 03:36:40;;;;;;;2.55;1.02;;;12.80;99.90;;;;;;5032437;28;20061;-89
2023/03/10 03:39:06;;;;;;;2.03;0.90;;;12.90;99.90;;;;;;5032335;28;20068;-88
2023/03/10 03:41:32;;;;;;;1.65;0.90;;;13.00;99.90;;;;;;5032546;28;20022;-89
2023/03/10 03:43:58;;;;;;;1.73;1.00;;;13.10;99.90;;;;;;5031906;28;20021;-88
2023/03/10 03:46:23;;;;;;;2.15;0.90;;;13.10;99.90;;;;;;5032232;28;20406;-88
2023/03/10 03:48:49;;;;;;;1.13;0.73;;;13.10;99.90;;;;;;5032624;28;20029;-88
2023/03/10 03:51:14;;;;;;;2.33;1.23;;;13.10;99.90;;;;;;5031142;28;20029;-89
2023/03/10 03:53:40;;;;;;;2.13;0.88;;;13.10;99.90;;;;;;5032496;28;20082;-88
2023/03/10 03:56:06;;;;;;;5.78;1.08;;;13.10;99.90;;;;;;5032291;28;20471;-88
2023/03/10 03:58:32;;;;;;;1.55;0.80;;;13.20;99.90;;;;;;5031538;28;20490;-88
2023/03/10 04:00:57;;;;;;;0.95;0.77;;;13.10;99.90;;;;;;5032050;28;20031;-88
2023/03/10 04:03:23;;;;;;;1.33;0.70;;;13.10;99.90;;;;;;5031880;28;20448;-89
2023/03/10 04:05:48;;;;;;;2.63;0.80;;;13.20;99.90;;;;;;5032486;28;20036;-88
2023/03/10 04:08:14;;;;;;;1.70;0.73;;;13.20;99.90;;;;;;5031870;28;20395;-88
2023/03/10 04:10:40;;;;;;;1.00;0.60;;;13.10;99.90;;;;;;5031948;28;20071;-88
2023/03/10 04:13:06;;;;;;;2.80;1.05;;;13.20;99.90;;;;;;5048622;27;20033;-89
2023/03/10 04:15:31;;;;;;;2.30;0.90;;;13.10;99.90;;;;;;5051756;28;20029;-88
2023/03/10 04:17:57;;;;;;;1.02;0.90;;;13.10;99.90;;;;;;5051414;28;20056;-88
2023/03/10 04:20:24;;;;;;;2.35;1.00;;;13.10;99.90;;;;;;5051768;28;20432;-89
2023/03/10 04:22:50;;;;;;;3.50;1.20;;;13.00;99.90;;;;;;5051538;28;20025;-88
2023/03/10 04:25:17;;;;;;;2.88;1.23;;;13.00;99.90;;;;;;5052193;28;20463;-88
2023/03/10 04:27:43;;;;;;;2.60;1.10;;;12.90;99.90;;;;;;5050723;28;20074;-88
2023/03/10 04:30:11;;;;;;;3.97;1.48;;;13.00;99.90;;;;;;5051280;28;20127;-87
2023/03/10 04:32:37;;;;;;;3.80;1.48;;;12.90;99.90;;;;;;5051967;28;20021;-88
2023/03/10 04:35:04;;;;;;;2.33;1.50;;;12.90;99.90;;;;;;5050811;28;20479;-89
2023/03/10 04:37:30;;;;;;;2.90;1.58;;;12.90;99.90;;;;;;5051277;28;20047;-88
2023/03/10 04:39:56;;;;;;;3.67;1.58;;;12.80;99.90;;;;;;5051626;28;20025;-87
2023/03/10 04:42:22;;;;;;;4.90;1.50;;;12.50;99.90;;;;;;5050024;28;20017;-88
2023/03/10 04:44:47;;;;;;;3.13;1.70;;;12.40;99.90;;;;;;5051268;28;20033;-89
2023/03/10 04:47:13;;;;;;;2.97;1.70;;;12.40;99.90;;;;;;5051050;28;20043;-87
2023/03/10 04:49:39;;;;;;;2.50;1.33;;;12.30;99.90;;;;;;5051278;28;20021;-87
2023/03/10 04:52:05;;;;;;;3.42;1.35;;;12.30;99.90;;;;;;5051215;28;20439;-87
2023/03/10 04:54:30;;;;;;;2.90;1.50;;;12.30;99.90;;;;;;5051234;28;20470;-87
2023/03/10 04:56:56;;;;;;;2.63;1.42;;;12.30;99.90;;;;;;5050944;28;20068;-87
2023/03/10 04:59:23;;;;;;;2.90;1.40;;;12.40;99.90;;;;;;5050980;28;20025;-87
2023/03/10 05:01:51;;;;;;;2.70;1.30;;;12.50;99.90;;;;;;5051145;28;20056;-87
2023/03/10 05:04:17;;;;;;;3.53;1.70;;;12.50;99.90;;;;;;5050787;28;20044;-88
2023/03/10 05:06:43;;;;;;;4.18;1.25;;;12.50;99.90;;;;;;5049958;28;20049;-89
2023/03/10 05:09:08;;;;;;;2.72;1.60;;;12.50;99.90;;;;;;5049714;28;20068;-88
2023/03/10 05:11:34;;;;;;;2.83;1.40;;;12.40;99.90;;;;;;5050636;27;20398;-89
2023/03/10 05:14:00;;;;;;;1.85;1.50;;;12.40;99.90;;;;;;5050969;28;20036;-89
2023/03/10 05:16:26;;;;;;;1.95;1.33;;;12.40;99.90;;;;;;5050326;28;20418;-89
2023/03/10 05:18:52;;;;;;;2.95;1.60;;;12.40;99.90;;;;;;5051299;28;20029;-88
2023/03/10 05:21:17;;;;;;;3.90;1.42;;;12.40;99.90;;;;;;5051174;28;20502;-88
2023/03/10 05:23:43;;;;;;;4.32;1.58;;;12.40;99.90;;;;;;5050354;28;20032;-88
2023/03/10 05:26:11;;;;;;;3.83;1.92;;;12.40;99.90;;;;;;5050464;28;20524;-88
2023/03/10 05:28:37;;;;;;;3.30;1.30;;;12.30;99.90;;;;;;5051131;28;20028;-88
2023/03/10 05:31:08;;;;;;;3.30;1.67;;;12.30;99.90;;;;;;5050658;28;20394;-89
2023/03/10 05:33:34;;;;;;;4.97;1.50;;;12.30;99.90;;;;;;5050679;28;20029;-88
2023/03/10 05:36:09;;;;;;;5.05;1.50;;;11.70;99.90;;;;;;5050484;28;20109;-88
2023/03/10 05:38:36;;;;;;;4.35;1.60;;;11.90;99.90;;;;;;5050565;28;20032;-88
2023/03/10 05:41:06;;;;;;;3.25;1.67;;;11.80;99.90;;;;;;5050095;28;20077;-88
2023/03/10 05:43:31;;;;;;;3.58;1.60;;;11.70;99.90;;;;;;5050243;28;20021;-88
2023/03/10 05:45:58;;;;;;;4.32;1.45;;;11.70;99.90;;;;;;5049411;28;20463;-88
2023/03/10 05:48:24;;;;;;;4.50;1.77;;;11.70;99.90;;;;;;5049969;28;20032;-88
2023/03/10 05:51:17;;;;;;;5.10;1.90;;;11.60;99.90;;;;;;5050196;28;20035;-88
2023/03/10 05:53:42;;;;;;;4.38;1.95;;;11.40;99.90;;;;;;5050462;27;20036;-88
2023/03/10 05:56:11;;;;;;;8.10;4.90;;;11.40;99.90;;;;;;5050486;28;20058;-88
2023/03/10 05:58:38;;;;;;;5.97;2.22;;;11.20;99.90;;;;;;5050052;28;20025;-87
2023/03/10 06:01:05;;;;;;;12.80;6.90;;;11.30;99.90;;;;;;5050455;28;20558;-88
2023/03/10 06:03:32;;;;;;;6.45;2.50;;;11.20;99.90;;;;;;5050384;28;20379;-88
2023/03/10 06:05:58;;;;;;;10.95;5.97;;;11.20;99.90;;;;;;5050019;28;20424;-88
2023/03/10 06:08:26;;;;;;;9.65;4.15;;;11.20;99.90;;;;;;5049547;28;20424;-88
2023/03/10 06:10:52;;;;;;;8.88;2.53;;;11.10;99.90;;;;;;5050392;28;20459;-88
2023/03/10 06:13:19;;;;;;;8.48;2.30;;;11.10;99.90;;;;;;5049010;27;20029;-90
2023/03/10 06:15:59;;;;;;;6.53;2.75;;;11.20;99.90;;;;;;5049350;28;20108;-88
2023/03/10 06:18:26;;;;;;;7.03;2.28;;;11.20;99.90;;;;;;5049444;28;20529;-88
2023/03/10 06:20:52;;;;;;;4.32;1.90;;;11.20;99.90;;;;;;5049936;28;20067;-88
2023/03/10 06:23:19;;;;;;;5.93;2.22;;;11.20;99.90;;;;;;5048474;28;20025;-89
2023/03/10 06:25:53;;;;;;;3.05;1.73;;;11.20;99.90;;;;;;5049837;28;20505;-87
2023/03/10 06:28:19;;;;;;;6.18;1.90;;;11.20;99.90;;;;;;5050194;28;20029;-87
2023/03/10 06:30:44;;;;;;;4.60;2.05;;;11.20;99.90;;;;;;5049561;28;20370;-88
2023/03/10 06:33:10;;;;;;;7.68;2.10;;;11.30;99.90;;;;;;5049811;28;20032;-87
2023/03/10 06:35:36;;;;;;;6.68;2.00;;;11.40;99.90;;;;;;5049847;28;20033;-88
2023/03/10 06:38:01;;;;;;;7.82;2.35;;;11.40;99.90;;;;;;5048415;28;20091;-88
2023/03/10 06:40:27;;;;;;;3.25;1.92;;;11.40;99.90;;;;;;5049532;28;20089;-88
2023/03/10 06:42:52;;;;;;;3.58;1.92;;;11.40;99.90;;;;;;5049767;28;20033;-88
2023/03/10 06:45:18;;;;;;;6.20;2.40;;;11.50;99.90;;;;;;5048116;28;20550;-88
2023/03/10 06:47:44;;;;;;;9.95;2.53;;;11.50;99.90;;;;;;5049196;28;20056;-88
2023/03/10 06:50:11;;;;;;;5.50;2.22;;;11.60;99.90;;;;;;5049309;28;20100;-88
2023/03/10 06:52:36;;;;;;;5.72;2.15;;;11.70;99.90;;;;;;5047612;28;20402;-88
2023/03/10 06:55:03;;;;;;;5.50;2.05;;;11.70;99.90;;;;;;5049304;28;20021;-88
2023/03/10 06:57:28;;;;;;;6.25;2.20;;;11.70;99.90;;;;;;5048678;28;20405;-88
2023/03/10 06:59:54;;;;;;;5.10;2.00;;;11.80;99.90;;;;;;5049109;28;20027;-88
2023/03/10 07:02:20;;;;;;;4.75;2.00;;;11.90;99.90;;;;;;5049724;28;20037;-88
2023/03/10 07:04:46;;;;;;;3.33;1.55;;;12.00;99.90;;;;;;5049060;28;20024;-88
2023/03/10 07:07:13;;;;;;;4.85;1.55;;;12.20;99.90;;;;;;5048925;28;20482;-88
2023/03/10 07:09:39;;;;;;;3.90;1.33;;;12.20;99.90;;;;;;5049194;28;20021;-88
2023/03/10 07:12:05;;;;;;;5.80;1.83;;;12.20;99.90;;;;;;5048878;27;20104;-88
2023/03/10 07:14:31;;;;;;;7.78;1.98;;;12.20;99.90;;;;;;5049177;28;20471;-88
2023/03/10 07:16:57;;;;;;;3.78;1.55;;;12.20;99.90;;;;;;5048456;28;20072;-87
2023/03/10 07:19:24;;;;;;;5.18;1.38;;;12.10;99.90;;;;;;5048792;28;20510;-88
2023/03/10 07:21:50;;;;;;;6.05;1.77;;;12.10;99.90;;;;;;5048681;28;20074;-87
2023/03/10 07:24:16;;;;;;;6.18;2.30;;;12.10;99.90;;;;;;5048874;28;20066;-88
2023/03/10 07:26:43;;;;;;;8.13;2.42;;;12.10;99.90;;;;;;5048143;28;20070;-88
2023/03/10 07:29:08;;;;;;;6.63;1.95;;;12.20;99.90;;;;;;5049182;28;20479;-88
2023/03/10 07:31:35;;;;;;;5.32;1.30;;;12.30;99.90;;;;;;5040689;28;20082;-88
2023/03/10 07:34:01;;;;;;;4.32;1.98;;;12.30;99.90;;;;;;5028551;28;20038;-88
2023/03/10 07:36:28;;;;;;;4.20;1.58;;;12.40;99.90;;;;;;5027851;28;20034;-88
2023/03/10 07:38:53;;;;;;;9.75;2.20;;;12.40;99.90;;;;;;5031959;28;20296;-88
2023/03/10 07:41:20;;;;;;;5.80;2.15;;;12.40;99.90;;;;;;5047289;28;20021;-88
2023/03/10 07:43:49;;;;;;;4.50;2.35;;;12.40;99.90;;;;;;5047689;28;20049;-87
2023/03/10 07:46:15;;;;;;;6.53;1.92;;;12.20;99.90;;;;;;5048403;28;20033;-88
2023/03/10 07:48:41;;;;;;;3.47;1.45;;;12.20;99.90;;;;;;5048084;28;20033;-88
2023/03/10 07:51:07;;;;;;;7.03;1.95;;;12.20;99.90;;;;;;5047678;28;20009;-87
2023/03/10 07:53:33;;;;;;;3.53;1.30;;;12.30;99.90;;;;;;5048242;28;20041;-88
2023/03/10 07:56:02;;;;;;;3.85;1.30;;;12.30;99.90;;;;;;5048012;28;20028;-88
2023/03/10 07:58:28;;;;;;;5.22;1.90;;;12.30;99.90;;;;;;5048466;28;20040;-88
2023/03/10 08:00:57;;;;;;;6.82;2.10;;;12.30;99.90;;;;;;5048030;28;20463;-88
2023/03/10 08:03:24;;;;;;;4.57;1.42;;;12.30;99.90;;;;;;5048262;28;20033;-89
2023/03/10 08:05:50;;;;;;;6.38;1.65;;;12.40;99.90;;;;;;5048123;28;20021;-88
2023/03/10 08:08:16;;;;;;;6.20;1.70;;;12.30;99.90;;;;;;5048298;28;20086;-88
2023/03/10 08:10:42;;;;;;;6.68;1.70;;;12.40;99.90;;;;;;5051053;28;20025;-88
2023/03/10 08:13:08;;;;;;;7.03;1.98;;;12.50;99.90;;;;;;5052410;27;20562;-93
2023/03/10 08:15:33;;;;;;;9.07;2.00;;;12.60;99.90;;;;;;5051836;28;20493;-88
2023/03/10 08:18:03;;;;;;;9.02;2.45;;;12.60;99.90;;;;;;5050076;28;20049;-88
2023/03/10 08:20:29;;;;;;;8.02;2.58;;;12.50;99.90;;;;;;5051294;28;20477;-88
2023/03/10 08:22:55;;;;;;;4.95;2.00;;;12.50;99.90;;;;;;5051661;28;20021;-88
2023/03/10 08:25:20;;;;;;;5.85;2.53;;;12.50;99.90;;;;;;5051524;28;20450;-88
2023/03/10 08:27:46;;;;;;;5.43;2.42;;;12.50;99.90;;;;;;5051736;28;20036;-89
2023/03/10 08:30:12;;;;;;;7.00;2.45;;;12.50;99.90;;;;;;5051533;28;20050;-89
2023/03/10 08:32:37;;;;;;;7.10;2.97;;;12.60;99.90;;;;;;5051316;28;20029;-88
2023/03/10 08:35:04;;;;;;;8.85;2.92;;;12.60;99.90;;;;;;5051553;28;20028;-89
2023/03/10 08:37:30;;;;;;;7.60;2.42;;;12.70;99.90;;;;;;5050024;28;20447;-89
2023/03/10 08:39:58;;;;;;;6.78;2.38;;;12.70;99.90;;;;;;5051409;28;20025;-89
2023/03/10 08:42:23;;;;;;;5.25;1.88;;;12.70;99.90;;;;;;5051413;28;20035;-89
2023/03/10 08:44:49;;;;;;;5.57;2.20;;;12.70;99.90;;;;;;5051408;28;20029;-88
2023/03/10 08:47:15;;;;;;;10.68;2.45;;;12.70;99.90;;;;;;5051102;28;20027;-89
2023/03/10 08:49:41;;;;;;;5.95;1.88;;;12.70;99.90;;;;;;5050974;28;20120;-88
2023/03/10 08:52:08;;;;;;;4.30;1.27;;;12.70;99.90;;;;;;5051320;28;20025;-89
2023/03/10 08:54:33;;;;;;;4.63;1.45;;;12.70;99.90;;;;;;5051609;28;20032;-89
2023/03/10 08:56:59;;;;;;;3.78;1.30;;;12.70;99.90;;;;;;5050940;28;20044;-88
2023/03/10 08:59:25;;;;;;;3.75;1.75;;;12.20;99.90;;;;;;5049705;28;20029;-88
2023/03/10 09:01:51;;;;;;;3.75;1.20;;;12.10;99.90;;;;;;5051079;28;20061;-88
2023/03/10 09:04:17;;;;;;;4.78;2.40;;;12.10;99.90;;;;;;5049306;28;20060;-88
2023/03/10 09:06:42;;;;;;;3.10;1.40;;;12.10;99.90;;;;;;5051114;28;20028;-88
2023/03/10 09:09:09;;;;;;;4.63;1.20;;;12.10;99.90;;;;;;5051134;28;20032;-88
2023/03/10 09:11:36;;;;;;;4.82;1.30;;;11.90;99.90;;;;;;5050611;27;20475;-88
2023/03/10 09:14:02;;;;;;;3.85;1.80;;;11.90;99.90;;;;;;5051260;27;20025;-88
2023/03/10 09:16:29;;;;;;;4.70;2.97;;;11.90;99.90;;;;;;5050317;28;20399;-84
2023/03/10 09:18:56;;;;;;;5.95;3.63;;;12.10;99.90;;;;;;5050888;28;20037;-88
2023/03/10 09:21:21;;;;;;;3.35;1.90;;;12.00;99.90;;;;;;5050460;28;20032;-89
2023/03/10 09:23:51;;;;;;;6.00;2.70;;;12.00;99.90;;;;;;5050736;28;20033;-88
2023/03/10 09:26:18;;;;;;;2.95;1.60;;;12.10;99.90;;;;;;5050558;28;20031;-88
2023/03/10 09:28:43;;;;;;;3.58;1.10;;;12.20;99.90;;;;;;5050503;28;20028;-89
2023/03/10 09:31:18;;;;;;;4.75;1.65;;;12.30;99.90;;;;;;5050637;28;20104;-88
2023/03/10 09:33:44;;;;;;;6.68;1.80;;;12.50;99.90;;;;;;5051006;28;20025;-88
2023/03/10 09:36:10;;;;;;;3.58;1.67;;;12.50;99.90;;;;;;5050334;28;20107;-88
2023/03/10 09:38:35;;;;;;;3.15;1.70;;;12.50;99.90;;;;;;5050460;28;20029;-88
2023/03/10 09:41:13;;;;;;;4.50;2.15;;;12.40;99.90;;;;;;5050443;28;20032;-88
2023/03/10 09:43:49;;;;;;;4.65;1.90;;;12.40;99.90;;;;;;5050917;28;20570;-88
2023/03/10 09:46:23;;;;;;;3.63;1.83;;;12.40;99.90;;;;;;5049479;28;20036;-89
2023/03/10 09:48:59;;;;;;;5.75;1.70;;;12.50;99.90;;;;;;5050585;28;20085;-88
2023/03/10 09:51:27;;;;;;;10.85;7.80;;;12.80;99.90;;;;;;5050209;28;20021;-89
2023/03/10 09:54:18;;;;;;;6.18;2.60;;;12.90;99.90;;;;;;5050564;28;20031;-89
2023/03/10 09:56:43;;;;;;;4.20;2.20;;;12.90;99.90;;;;;;5050054;28;20060;-89
2023/03/10 09:59:27;;;;;;;5.93;2.70;;;12.80;99.90;;;;;;5050400;28;20021;-87
2023/03/10 10:01:53;;;;;;;4.93;2.03;;;13.10;99.90;;;;;;5048914;28;20376;-89
2023/03/10 10:04:26;;;;;;;6.05;3.00;;;13.20;99.90;;;;;;5050878;28;20032;-89
2023/03/10 10:06:55;;;;;;;6.28;1.98;;;13.20;99.90;;;;;;5049740;28;20061;-90
2023/03/10 10:09:31;;;;;;;6.35;3.63;;;13.30;99.90;;;;;;5050112;28;20074;-90
2023/03/10 10:12:05;;;;;;;4.60;1.45;;;13.60;99.90;;;;;;5049084;27;20489;-90
2023/03/10 10:14:31;;;;;;;6.22;1.65;;;13.90;99.90;;;;;;5049747;28;20021;-91
2023/03/10 10:17:33;;;;;;;3.08;1.23;;;14.40;99.90;;;;;;5050064;28;20056;-82
2023/03/10 10:19:58;;;;;;;3.60;1.20;;;14.50;99.90;;;;;;5049129;28;20029;-88
2023/03/10 10:22:34;;;;;;;3.85;1.60;;;14.50;99.90;;;;;;5050411;28;20040;-87
2023/03/10 10:25:09;;;;;;;2.92;1.08;;;14.40;99.90;;;;;;5049865;28;20032;-87
2023/03/10 10:27:39;;;;;;;4.57;1.60;;;14.30;99.90;;;;;;5049603;28;20029;-92
2023/03/10 10:30:25;;;;;;;3.90;1.40;;;14.40;99.90;;;;;;5048647;28;20041;-87
2023/03/10 10:33:05;;;;;;;2.88;1.30;;;14.00;99.90;;;;;;5047235;28;20021;-88
2023/03/10 10:35:43;;;;;;;2.55;1.08;;;14.20;99.90;;;;;;5049365;28;20399;-88
2023/03/10 10:38:09;;;;;;;3.55;1.33;;;14.60;99.90;;;;;;5049394;28;20375;-88
2023/03/10 10:41:04;;;;;;;3.75;1.50;;;18.10;99.90;;;;;;5047572;28;20031;-88
2023/03/10 10:43:39;;;;;;;3.15;1.20;;;18.10;99.90;;;;;;5049889;28;20395;-86
2023/03/10 10:46:07;;;;;;;3.60;1.30;;;16.70;99.90;;;;;;5049351;28;20501;-87
2023/03/10 10:48:45;;;;;;;3.47;1.52;;;16.20;99.90;;;;;;5049304;28;20102;-86
2023/03/10 10:51:27;;;;;;;4.13;1.27;;;15.90;99.90;;;;;;5049515;28;20025;-86
2023/03/10 10:53:58;;;;;;;4.50;1.40;;;15.50;99.90;;;;;;5049025;28;20097;-88
2023/03/10 10:56:27;;;;;;;3.63;1.50;;;15.20;99.90;;;;;;5048722;28;20025;-86
2023/03/10 10:59:33;;;;;;;4.25;1.15;;;14.70;99.90;;;;;;5048875;28;20029;-85
2023/03/10 11:02:01;;;;;;;4.82;1.63;;;14.60;99.90;;;;;;5048923;28;20029;-87
2023/03/10 11:04:40;;;;;;;5.10;1.67;;;14.30;99.90;;;;;;5049061;28;20409;-86
2023/03/10 11:07:25;;;;;;;4.25;1.33;;;14.50;99.90;;;;;;5049301;28;20439;-86
2023/03/10 11:09:52;;;;;;;3.75;1.60;;;14.30;99.90;;;;;;5047702;28;20044;-86
2023/03/10 11:12:59;;;;;;;4.57;2.00;;;14.30;99.90;;;;;;5047964;27;20040;-86
2023/03/10 11:15:34;;;;;;;5.68;2.55;;;14.10;99.90;;;;;;5048669;28;20494;-87
2023/03/10 11:18:13;;;;;;;6.93;2.45;;;13.90;99.90;;;;;;5048739;28;20076;-87
2023/03/10 11:20:45;;;;;;;10.20;6.03;;;13.90;99.90;;;;;;5048997;28;20482;-89
2023/03/10 11:23:32;;;;;;;4.25;2.95;;;13.90;99.90;;;;;;5049428;28;20047;-88
2023/03/10 11:26:16;;;;;;;5.97;2.25;;;14.10;99.90;;;;;;5048579;28;20085;-89
2023/03/10 11:28:47;;;;;;;5.55;2.20;;;14.40;99.90;;;;;;5049267;27;20488;-87
2023/03/10 11:31:29;;;;;;;8.20;1.92;;;14.10;99.90;;;;;;5029094;28;20495;-89
2023/03/10 11:34:03;;;;;;;7.07;2.33;;;14.20;99.90;;;;;;5028796;28;20021;-89
2023/03/10 11:36:53;;;;;;;5.95;2.40;;;14.30;99.90;;;;;;5045433;28;20036;-88
2023/03/10 11:39:42;;;;;;;6.88;2.17;;;15.20;99.90;;;;;;5049089;28;20045;-89
2023/03/10 11:42:41;;;;;;;7.63;2.20;;;15.90;99.90;;;;;;5048405;28;20560;-90
2023/03/10 11:45:30;;;;;;;7.38;2.40;;;17.30;99.90;;;;;;5051946;28;20553;-89
2023/03/10 11:48:17;;;;;;;6.13;2.50;;;17.30;99.90;;;;;;5052995;28;20017;-96
2023/03/10 11:50:58;;;;;;;9.10;2.80;;;16.60;99.90;;;;;;5056884;28;20033;-96
2023/03/10 11:53:37;;;;;;;7.93;2.42;;;16.60;99.90;;;;;;5059761;28;20021;-96
2023/03/10 11:56:04;;;;;;;6.95;3.00;;;17.00;99.90;;;;;;5051893;28;20036;-94
2023/03/10 11:58:51;;;;;;;9.07;2.75;;;17.10;99.90;;;;;;5052327;28;20037;-94
2023/03/10 12:01:29;;;;;;;5.63;2.40;;;17.90;99.90;;;;;;5032878;28;20029;-94
2023/03/10 12:04:04;;;;;;;9.93;2.90;;;18.70;99.90;;;;;;5047673;28;20025;-94
2023/03/10 12:06:41;;;;;;;7.13;2.13;;;18.70;99.90;;;;;;5052821;28;20386;-93
2023/03/10 12:09:21;;;;;;;10.65;3.30;;;19.10;99.90;;;;;;5052308;28;20017;-92
2023/03/10 12:11:48;;;;;;;7.25;2.88;;;20.50;99.90;;;;;;5051830;27;20116;-92
2023/03/10 12:14:14;;;;;;;8.93;2.55;;;21.20;99.90;;;;;;5052202;28;20081;-92
2023/03/10 12:16:40;;;;;;;10.15;2.45;;;21.20;99.90;;;;;;5051945;28;20090;-93
2023/03/10 12:19:06;;;;;;;9.27;2.97;;;21.20;99.90;;;;;;5052162;28;20068;-92
2023/03/10 12:21:32;;;;;;;8.60;2.50;;;21.40;99.90;;;;;;5052152;28;20048;-92
2023/03/10 12:24:01;;;;;;;8.73;3.33;;;21.50;99.90;;;;;;5052190;28;20070;-93
2023/03/10 12:26:39;;;;;;;9.20;3.17;;;22.00;99.90;;;;;;5051770;28;20103;-92
2023/03/10 12:29:20;;;;;;;10.43;2.92;;;22.20;99.90;;;;;;5052054;28;20367;-91
2023/03/10 12:31:54;;;;;;;6.05;2.25;;;22.90;99.90;;;;;;5051978;28;20025;-92
2023/03/10 12:34:22;;;;;;;6.35;3.10;;;24.00;99.90;;;;;;5052114;28;20490;-92
2023/03/10 12:36:51;;;;;;;6.78;2.70;;;23.50;99.90;;;;;;5051829;28;20047;-92
2023/03/10 12:39:31;;;;;;;8.73;4.80;;;23.00;99.90;;;;;;5051849;28;20037;-92
2023/03/10 12:42:02;;;;;;;11.82;3.65;;;22.30;99.90;;;;;;5051732;28;20520;-92
2023/03/10 12:44:34;;;;;;;7.25;2.45;;;21.50;99.90;;;;;;5051777;28;20514;-92
2023/03/10 12:47:11;;;;;;;7.25;2.80;;;20.90;99.90;;;;;;5051731;28;20487;-93
2023/03/10 12:49:49;;;;;;;7.05;2.67;;;20.80;99.90;;;;;;5051721;28;20036;-92
2023/03/10 12:52:39;;;;;;;9.15;2.83;;;20.30;99.90;;;;;;5051663;28;20423;-91
2023/03/10 12:55:17;;;;;;;8.73;3.03;;;19.70;99.90;;;;;;5050295;28;20371;-92
2023/03/10 12:57:52;;;;;;;7.07;2.83;;;19.70;99.90;;;;;;5051516;28;20033;-93